Wilmington, New York
Current Conditions -  °F | °C
As of 3:21 AM on Saturday 25 Oct 2014 (Local Time) from KSLK Reporting Station
Haze Haze  
Wind Chill: 35°   Ceiling: 300
Heat Index: 35°   Visibility: 1.7mi
Dew Point: 34°   Wind: 3mph
Humidity: 96%   Direction: 200°SSW
Pressure: 29.79"   Gusts: NA
Location:  44.39°N, 73.82°W
Report Text: KSLK 250721Z AUTO 20003KT 1 3/4SM BR BKN003 02/01 A2979 RMK AO2 T00170011
Loading
Personal Weather Stations






























Interactive Weather Map
Tropical Storm Tracking
New forecast layout! Learn more

10-Day Weather Forecast

Advertisements
Track Severe Weather on mobile